Clarno, Oregon
Current Conditions -  °F | °C
As of 11:15 PM on Tuesday 21 Oct 2014 (Local Time) from KS39 Reporting Station
Overcast Overcast  
Wind Chill: 40°   Ceiling: 7500
Heat Index: 43°   Visibility: 10mi
Dew Point: 36°   Wind: 5mph
Humidity: 76%   Direction: 170°S
Pressure: 29.98"   Gusts: NA
Location:  44.8891°N, 120.795°W
Report Text: KS39 220615Z 17004KT 10SM OVC075 06/02 A2998 RMK AO2 CRANE OPERATIONS 1 MILE NE OF AIRPORT OPERATING AT APP. 150 FT AGL.
Loading
Personal Weather Stations






























Interactive Weather Map
Tropical Storm Tracking
New forecast layout! Learn more

10-Day Weather Forecast

Advertisements
Track Severe Weather on mobile